Airfield :
LOGIN :

Register | Disclaimer

   EN    FR    IT 

 










Legend :    VFR   Marginal VFR   IFR   Intensive IFR   Very Intensive IFR
Visi :
Ceiling :
>= 8 km
>= 3000ft
5 to 8 km
1000 to 3000 ft
1500m to 5 km
500 to 1000 ft
800 to 1500m
200 to 500 ft
< 800m
< 200 ft
Symbols :   Thunderstorms  Fog  Heavy snow  Heavy precipitations  Wind > 20 kt
SIGMETs :     Misc.  Thunderstorms  Icing  Turbulence  Mountain Waves  Volcanic Ashes







- Airport Elevation : 209 ft
- IATA code : CLY
- Download approach charts


LFKC - Calvi

CURRENT METAR :
  • 180700Z AUTO VRB01KT CAVOK 26/19 Q1016 NOSIG

EXPIRED METARs :
  • 180630Z AUTO VRB02KT CAVOK 24/16 Q1015 NOSIG
  • 180600Z AUTO 19003KT 130V260 CAVOK 22/15 Q1015 BECMG 35010KT
  • 180530Z AUTO 18003KT 170V230 CAVOK 19/14 Q1015 BECMG 35010KT
  • 180500Z AUTO 18003KT CAVOK 17/14 Q1015 BECMG 35010KT
  • 180430Z AUTO 18003KT CAVOK 17/14 Q1015 BECMG 35010KT

TAF TAF LFKC
Valid from the 18 at 03:00 until the 19 at 03:00 UTC


180200Z 1803/1903 18003KT 9999 FEW020 TX30/1812Z TN18/1803Z
BECMG 1806/1808 35010KT
BECMG 1818/1820 18004KT
ATIS : +33 4 95 65 82 49
No reported NOTAMs for that airfield.



MET'MAP, your aeronautical weather chart ! - Copyright ORBIFLY December 2007 - Disclaimer

ORBIFLY MET'MAP TEAM :

Programming & Development : Alexandra Zaïnal
Concept & Development : Baudouin d'Aumeries
Co-Development & Prog : Marc-Olivier Méhu
Technical & hardware support : Manuel Goepfert

Contact : metmap@orbifly.com




SOURCES & CREDITS :

   NOAA